createdAt,value
2023-03-02T00:20:24.770Z,15.88
2023-03-02T00:25:33.794Z,14.40
2023-03-02T00:30:46.017Z,15.55
2023-03-02T00:35:57.371Z,9.93
2023-03-02T00:41:14.982Z,7.28
2023-03-02T00:46:30.261Z,9.07
2023-03-02T00:51:37.648Z,8.53
2023-03-02T00:57:03.526Z,7.80
2023-03-02T01:02:24.307Z,7.47
2023-03-02T01:07:46.483Z,7.45
2023-03-02T01:12:54.716Z,6.45
2023-03-02T01:18:10.682Z,7.43
2023-03-02T01:23:34.923Z,6.22
2023-03-02T01:28:48.244Z,4.03
2023-03-02T01:39:22.621Z,1.95
2023-03-02T01:50:22.598Z,1.65
2023-03-02T01:55:37.054Z,3.37
2023-03-02T02:00:54.222Z,6.20
2023-03-02T02:06:15.133Z,4.18
2023-03-02T02:11:25.584Z,2.43
2023-03-02T02:16:36.266Z,2.65
2023-03-02T02:22:32.621Z,1.97
2023-03-02T02:28:01.470Z,2.03
2023-03-02T02:33:37.129Z,2.00
2023-03-02T02:38:52.499Z,2.20
2023-03-02T02:44:25.304Z,3.10
2023-03-02T03:00:29.291Z,1.65
2023-03-02T03:05:48.515Z,2.13
2023-03-02T03:10:53.872Z,1.88
2023-03-02T03:16:05.102Z,1.90
2023-03-02T03:21:12.622Z,3.78
2023-03-02T03:26:18.695Z,6.03
2023-03-02T03:37:06.847Z,7.50
2023-03-02T03:42:15.976Z,7.97
2023-03-02T03:47:25.577Z,8.15
2023-03-02T03:52:33.299Z,7.97
2023-03-02T03:57:47.583Z,7.77
2023-03-02T04:02:59.375Z,7.65
2023-03-02T04:13:27.919Z,9.32
2023-03-02T04:18:44.699Z,10.60
2023-03-02T04:23:50.776Z,10.43
2023-03-02T04:29:00.401Z,9.45
2023-03-02T04:34:12.336Z,10.07
2023-03-02T04:39:22.649Z,9.07
2023-03-02T04:44:30.284Z,9.27
2023-03-02T04:49:55.894Z,9.37
2023-03-02T04:55:03.432Z,9.65
2023-03-02T05:00:12.300Z,8.57
2023-03-02T05:05:44.978Z,8.48
2023-03-02T05:10:54.708Z,7.68
2023-03-02T05:16:04.578Z,6.70
2023-03-02T05:21:17.460Z,6.57
2023-03-02T05:26:22.585Z,6.83
2023-03-02T05:31:37.601Z,6.35
2023-03-02T05:36:50.395Z,5.88
2023-03-02T05:42:01.832Z,7.20
2023-03-02T05:47:07.711Z,8.00
2023-03-02T05:52:18.023Z,7.70
2023-03-02T05:57:21.791Z,8.18
2023-03-02T06:02:26.913Z,10.57
2023-03-02T06:07:46.968Z,11.57
2023-03-02T06:13:09.140Z,8.75
2023-03-02T06:18:14.207Z,8.33
2023-03-02T06:23:32.976Z,9.50
2023-03-02T06:28:52.005Z,8.75
2023-03-02T06:34:07.671Z,8.93
2023-03-02T06:40:06.790Z,7.97
2023-03-02T07:08:24.513Z,7.13
2023-03-02T08:02:57.331Z,14.17
2023-03-02T08:26:50.374Z,44.97
2023-03-02T08:32:05.741Z,12.30
2023-03-02T08:37:09.240Z,14.40
2023-03-02T08:52:40.166Z,14.90
2023-03-02T08:57:52.035Z,18.20
2023-03-02T09:03:13.504Z,12.95
2023-03-02T09:08:16.592Z,7.68
2023-03-02T09:13:21.591Z,7.87
2023-03-02T09:18:25.673Z,6.45
2023-03-02T09:29:13.881Z,6.40
2023-03-02T09:34:17.637Z,5.78
2023-03-02T09:39:21.259Z,5.37
2023-03-02T10:01:20.712Z,5.05
2023-03-02T10:11:42.685Z,5.27
2023-03-02T10:22:01.040Z,9.33
2023-03-02T10:32:31.949Z,8.77
2023-03-02T10:37:41.195Z,6.03
2023-03-02T10:42:49.071Z,5.10
2023-03-02T10:48:03.134Z,19.00
2023-03-02T10:58:41.113Z,14.10
2023-03-02T11:20:52.980Z,5.43
2023-03-02T11:31:02.339Z,8.13
2023-03-02T12:26:36.261Z,5.13
2023-03-02T12:31:50.119Z,6.22
2023-03-02T13:02:20.765Z,3.22
2023-03-02T13:14:57.360Z,5.67
2023-03-02T13:20:04.768Z,3.67
2023-03-02T13:25:31.901Z,2.13
2023-03-02T14:54:52.661Z,3.00
2023-03-02T14:59:56.753Z,2.70
2023-03-02T15:04:59.264Z,2.70
2023-03-02T15:10:04.153Z,4.30
2023-03-02T16:01:20.929Z,5.25
2023-03-02T16:26:20.645Z,5.93
2023-03-02T16:31:26.189Z,6.68
2023-03-02T16:43:18.540Z,7.40
2023-03-02T16:48:21.543Z,6.97
2023-03-02T16:53:24.506Z,7.33
2023-03-02T16:58:29.023Z,7.30
2023-03-02T17:03:32.061Z,8.27
2023-03-02T17:08:35.341Z,7.78
2023-03-02T17:13:39.748Z,8.70
2023-03-02T17:18:42.821Z,7.13
2023-03-02T17:23:46.269Z,7.22
2023-03-02T17:28:50.284Z,9.27
2023-03-02T17:33:53.072Z,13.00
2023-03-02T17:38:55.947Z,10.68
2023-03-02T17:44:01.793Z,8.60
2023-03-02T17:49:04.638Z,8.45
2023-03-02T17:54:07.473Z,6.80
2023-03-02T17:59:12.249Z,6.72
2023-03-02T18:04:14.940Z,5.97
2023-03-02T18:09:17.836Z,6.57
2023-03-02T18:14:22.185Z,8.50
2023-03-02T18:19:25.017Z,7.70
2023-03-02T18:24:28.152Z,7.18
2023-03-02T18:29:32.511Z,7.03
2023-03-02T18:34:35.365Z,7.07
2023-03-02T18:39:38.421Z,7.95
2023-03-02T18:44:43.012Z,7.57
2023-03-02T18:49:46.091Z,7.72
2023-03-02T18:54:48.896Z,7.90
2023-03-02T18:59:53.643Z,7.43
2023-03-02T19:04:56.566Z,9.73
2023-03-02T19:09:59.583Z,8.40
2023-03-02T19:15:05.245Z,15.00
2023-03-02T19:20:12.588Z,34.22
2023-03-02T19:25:15.359Z,37.03
2023-03-02T19:30:25.526Z,53.05
2023-03-02T19:35:30.323Z,42.23
2023-03-02T19:40:33.978Z,44.67
2023-03-02T19:45:38.439Z,39.03
2023-03-02T19:50:41.416Z,36.77
2023-03-02T19:55:44.485Z,40.17
2023-03-02T20:00:49.305Z,38.23
2023-03-02T20:05:55.140Z,34.70
2023-03-02T20:10:57.965Z,31.42
2023-03-02T20:16:02.728Z,29.40
2023-03-02T20:21:06.529Z,31.23
2023-03-02T20:26:10.570Z,29.63
2023-03-02T20:31:16.196Z,26.77
2023-03-02T20:36:26.713Z,29.80
2023-03-02T20:41:30.220Z,26.07
2023-03-02T20:46:39.857Z,19.55
2023-03-02T20:51:47.928Z,17.23
2023-03-02T20:56:51.762Z,17.95
2023-03-02T21:01:56.375Z,21.83
2023-03-02T21:06:59.531Z,24.60
2023-03-02T21:12:02.920Z,22.75
2023-03-02T21:17:07.824Z,24.63
2023-03-02T21:22:10.657Z,22.17
2023-03-02T21:27:14.475Z,21.80
2023-03-02T21:32:19.216Z,21.77
2023-03-02T21:37:22.184Z,23.55
2023-03-02T21:42:25.224Z,24.60
2023-03-02T21:47:29.528Z,22.92
2023-03-02T21:52:32.189Z,21.00
2023-03-02T21:57:35.193Z,20.30
2023-03-02T22:02:39.882Z,25.35
2023-03-02T22:07:42.810Z,21.37
2023-03-02T22:12:45.552Z,20.42
2023-03-02T22:17:49.910Z,23.02
2023-03-02T22:22:54.744Z,22.60
2023-03-02T22:27:57.687Z,25.02
2023-03-02T22:33:02.108Z,27.67
2023-03-02T22:38:18.749Z,26.98
2023-03-02T22:43:26.291Z,26.80
2023-03-02T22:48:33.457Z,25.40
2023-03-02T22:53:46.546Z,25.83
2023-03-02T22:58:51.667Z,22.53
2023-03-02T23:04:10.801Z,22.70
2023-03-02T23:09:17.843Z,24.17
2023-03-02T23:14:28.225Z,24.10
2023-03-02T23:19:32.771Z,25.15
2023-03-02T23:24:35.643Z,26.77
2023-03-02T23:29:38.786Z,25.10
2023-03-02T23:34:43.244Z,24.05
2023-03-02T23:39:46.261Z,24.80
2023-03-02T23:44:49.079Z,23.27
2023-03-02T23:49:53.454Z,24.17
2023-03-02T23:54:56.658Z,23.58
